Aeroporto :
LOGIN :

Iscrizione | Disclaimer

   EN    FR    IT 

 










Sommario :    VFR   VFR Marginale   IFR   IFR Intensivo   IFR Molto Intensivo
Visibilità : 
Base nubi : 
>= 8 km
>= 3000ft
5 / 8 km
1000 / 3000 ft
1500m / 5 km
500 / 1000 ft
800 / 1500m
200 / 500 ft
< 800m
< 200 ft
Simboli :   Temporali  Nebbia  Neve Forte  Precipitazioni Forti  Vento > 20 kt
SIGMETs :   Varie  Temporali  Ghiacco  Turbolenza  Onda orograficha  Ceneri Vulcaniche






- Altitudine del aeroporto : 63 ft
- Codice IATA : BZM


EHWO - Woensdrecht Airbase

ULTIMO METAR :
  • 021955Z AUTO 25008KT 9999 BKN038 OVC043 08/05 Q1012 BLU

METARs OBSOLETI :
  • 021925Z AUTO 24007KT 9999 BKN038 OVC042 09/05 Q1012 REDZ BLU
  • 021855Z AUTO 25008KT 9999 DZ FEW020CB OVC037 09/04 Q1012 BLU
  • 021850Z AUTO 25008KT 9999 DZRA OVC037 09/04 Q1012 BLU
  • 021825Z AUTO 25009KT 9999 FEW041 OVC045 09/03 Q1012 BLU
  • 021755Z AUTO 24009KT 9999 BKN055 OVC061 09/03 Q1012 BLU
  • 021725Z AUTO 25009KT 220V280 9999 OVC050 09/02 Q1012 BLU

TAF TAF EHWO
Valido dal 02 a 10 ore il 02 a 22 ore UTC


020901Z 0210/0222 23008KT 9999 FEW020 BKN045
TEMPO 0210/0216 24010G20KT



MetMap, La meteo Aeronautica in un colpo d'occhio ! - Copyright ORBIFLY Dicembre 2007 - Disclaimer

ORBIFLY MET'MAP TEAM :

Programmazione e sviluppo : Alexandra Zaïnal
Concezione : Baudouin d'Aumeries
Aiuto per la programmazione : Marc-Olivier Méhu
Supporto tecnico e logistico : Manuel Goepfert
Aiuto per la traduzione : Arnaldo La Scala

Contatto : metmap@orbifly.com




FONTI E CREDITI :

   NOAA